createdAt,value
2022-09-21T00:00:52.755Z,78.33
2022-09-21T00:01:54.855Z,78.36
2022-09-21T00:02:58.467Z,77.94
2022-09-21T00:04:02.425Z,77.99
2022-09-21T00:05:06.418Z,78.28
2022-09-21T00:06:10.765Z,78.36
2022-09-21T00:07:13.294Z,78.35
2022-09-21T00:08:14.928Z,78.38
2022-09-21T00:09:17.555Z,78.38
2022-09-21T00:10:20.085Z,78.45
2022-09-21T00:11:27.891Z,78.50
2022-09-21T00:12:31.176Z,78.43
2022-09-21T00:13:37.225Z,78.22
2022-09-21T00:14:41.076Z,78.48
2022-09-21T00:15:42.618Z,78.46
2022-09-21T00:16:45.143Z,78.64
2022-09-21T00:17:47.509Z,78.66
2022-09-21T00:18:50.186Z,78.60
2022-09-21T00:19:52.373Z,78.73
2022-09-21T00:20:54.913Z,78.87
2022-09-21T00:21:57.763Z,78.86
2022-09-21T00:22:59.300Z,78.80
2022-09-21T00:24:02.974Z,79.11
2022-09-21T00:25:05.404Z,78.83
2022-09-21T00:26:09.713Z,78.88
2022-09-21T00:27:12.239Z,78.97
2022-09-21T00:28:13.788Z,78.93
2022-09-21T00:29:16.313Z,79.16
2022-09-21T00:30:19.241Z,79.11
2022-09-21T00:31:22.609Z,78.68
2022-09-21T00:32:25.028Z,78.79
2022-09-21T00:33:27.525Z,78.95
2022-09-21T00:34:30.194Z,78.97
2022-09-21T00:35:31.729Z,79.02
2022-09-21T00:36:35.334Z,79.14
2022-09-21T00:37:36.847Z,79.22
2022-09-21T00:38:39.543Z,79.28
2022-09-21T00:39:41.173Z,79.24
2022-09-21T00:40:43.634Z,79.18
2022-09-21T00:41:45.534Z,79.24
2022-09-21T00:42:48.122Z,79.25
2022-09-21T00:44:19.608Z,79.06
2022-09-21T00:45:23.473Z,79.25
2022-09-21T00:46:28.809Z,79.32
2022-09-21T00:47:35.254Z,79.32
2022-09-21T00:48:36.879Z,79.11
2022-09-21T00:49:40.575Z,79.21
2022-09-21T00:50:49.538Z,79.32
2022-09-21T00:51:53.122Z,79.43
2022-09-21T00:52:59.315Z,79.40
2022-09-21T00:54:04.684Z,79.52
2022-09-21T00:55:12.848Z,79.43
2022-09-21T00:56:15.492Z,79.58
2022-09-21T00:57:21.080Z,79.54
2022-09-21T00:58:28.166Z,79.39
2022-09-21T00:59:32.072Z,79.43
2022-09-21T01:00:35.154Z,79.70
2022-09-21T01:01:38.322Z,79.58
2022-09-21T01:02:40.128Z,79.51
2022-09-21T01:03:45.653Z,79.78
2022-09-21T01:04:47.507Z,79.50
2022-09-21T01:05:50.011Z,79.90
2022-09-21T01:06:52.573Z,79.78
2022-09-21T01:07:56.674Z,79.81
2022-09-21T01:08:59.839Z,79.82
2022-09-21T01:10:06.363Z,79.85
2022-09-21T01:11:34.259Z,79.80
2022-09-21T01:12:49.132Z,79.96
2022-09-21T01:14:07.996Z,79.96
2022-09-21T01:15:25.876Z,79.76
2022-09-21T01:16:36.474Z,80.33
2022-09-21T01:17:48.066Z,80.04
2022-09-21T01:18:59.498Z,80.29
2022-09-21T01:20:29.194Z,80.08
2022-09-21T01:21:35.303Z,80.12
2022-09-21T01:22:48.441Z,80.29
2022-09-21T01:24:15.670Z,80.26
2022-09-21T01:25:28.640Z,80.26
2022-09-21T01:26:40.118Z,80.42
2022-09-21T01:28:06.377Z,80.32
2022-09-21T01:29:16.896Z,80.12
2022-09-21T01:30:21.808Z,80.44
2022-09-21T01:31:27.337Z,80.42
2022-09-21T01:32:37.218Z,80.52
2022-09-21T01:33:43.998Z,80.59
2022-09-21T01:34:52.097Z,80.45
2022-09-21T01:35:57.620Z,80.61
2022-09-21T01:37:04.978Z,80.89
2022-09-21T01:38:10.117Z,80.81
2022-09-21T01:39:14.904Z,81.11
2022-09-21T01:40:20.678Z,80.93
2022-09-21T01:41:28.779Z,80.98
2022-09-21T01:42:33.763Z,80.66
2022-09-21T01:43:41.338Z,80.92
2022-09-21T01:44:45.992Z,80.89
2022-09-21T01:45:53.899Z,80.83
2022-09-21T01:46:57.558Z,81.07
2022-09-21T01:48:01.802Z,81.08
2022-09-21T01:49:10.467Z,81.06
2022-09-21T01:50:14.426Z,81.10
2022-09-21T01:51:20.406Z,81.16
2022-09-21T01:52:30.344Z,80.94
2022-09-21T01:54:28.546Z,81.08
2022-09-21T01:55:35.883Z,81.03
2022-09-21T01:56:42.052Z,81.05
2022-09-21T01:57:53.031Z,81.23
2022-09-21T01:59:03.348Z,81.28
2022-09-21T02:00:08.832Z,81.08
2022-09-21T02:01:16.563Z,81.27
2022-09-21T02:02:23.287Z,81.34
2022-09-21T02:03:29.883Z,81.49
2022-09-21T02:04:34.970Z,81.71
2022-09-21T02:05:37.534Z,81.56
2022-09-21T02:06:41.976Z,81.70
2022-09-21T02:07:47.331Z,81.66
2022-09-21T02:08:50.134Z,81.63
2022-09-21T02:09:51.918Z,81.52
2022-09-21T02:10:55.112Z,81.99
2022-09-21T02:11:58.310Z,81.63
2022-09-21T02:13:05.397Z,81.79
2022-09-21T02:14:09.662Z,81.83
2022-09-21T02:15:13.886Z,81.77
2022-09-21T02:16:30.153Z,81.75
2022-09-21T02:17:41.487Z,81.99
2022-09-21T02:18:52.076Z,81.91
2022-09-21T02:20:03.037Z,81.97
2022-09-21T02:21:09.059Z,81.85
2022-09-21T02:22:16.684Z,82.00
2022-09-21T02:23:23.850Z,81.75
2022-09-21T02:24:34.926Z,81.89
2022-09-21T02:25:44.605Z,81.89
2022-09-21T02:26:54.860Z,81.83
2022-09-21T02:28:05.239Z,81.78
2022-09-21T02:29:15.925Z,81.92
2022-09-21T02:30:21.185Z,81.79
2022-09-21T02:31:32.102Z,81.57
2022-09-21T02:32:41.701Z,81.86
2022-09-21T02:33:55.959Z,81.76
2022-09-21T02:35:04.625Z,81.58
2022-09-21T02:36:14.999Z,81.96
2022-09-21T02:37:22.890Z,81.66
2022-09-21T02:38:35.150Z,81.86
2022-09-21T02:39:43.296Z,81.82
2022-09-21T02:40:53.778Z,81.78
2022-09-21T02:42:07.561Z,81.73
2022-09-21T02:43:14.318Z,81.56
2022-09-21T02:44:22.449Z,81.51
2022-09-21T02:45:29.471Z,81.65
2022-09-21T02:46:35.537Z,81.35
2022-09-21T02:47:45.132Z,81.55
2022-09-21T02:48:51.378Z,81.33
2022-09-21T02:49:56.590Z,81.31
2022-09-21T02:51:04.407Z,81.16
2022-09-21T02:52:11.720Z,81.12
2022-09-21T02:53:17.812Z,80.96
2022-09-21T02:54:22.571Z,81.01
2022-09-21T02:55:27.189Z,80.98
2022-09-21T02:56:31.177Z,80.78
2022-09-21T02:57:33.640Z,80.81
2022-09-21T02:58:38.707Z,80.70
2022-09-21T02:59:41.839Z,80.70
2022-09-21T03:00:44.785Z,80.76
2022-09-21T03:01:48.212Z,80.84
2022-09-21T03:02:49.742Z,80.70
2022-09-21T03:03:52.222Z,80.94
2022-09-21T03:04:54.043Z,80.73
2022-09-21T03:05:56.536Z,80.41
2022-09-21T03:06:58.081Z,80.52
2022-09-21T03:08:00.550Z,80.70
2022-09-21T03:09:02.060Z,80.56
2022-09-21T03:10:06.190Z,80.42
2022-09-21T03:11:10.719Z,80.38
2022-09-21T03:12:12.392Z,80.53
2022-09-21T03:13:15.076Z,80.38
2022-09-21T03:14:17.131Z,80.27
2022-09-21T03:15:20.063Z,80.55
2022-09-21T03:16:24.423Z,80.32
2022-09-21T03:17:27.189Z,80.37
2022-09-21T03:18:29.010Z,80.32
2022-09-21T03:19:31.491Z,80.21
2022-09-21T03:20:33.507Z,80.10
2022-09-21T03:21:36.002Z,80.08
2022-09-21T03:22:37.508Z,80.10
2022-09-21T03:23:40.389Z,80.07
2022-09-21T03:24:47.922Z,80.10
2022-09-21T03:25:52.176Z,80.01
2022-09-21T03:26:53.694Z,79.98
2022-09-21T03:27:57.199Z,80.16
2022-09-21T03:28:58.728Z,79.95
2022-09-21T03:30:02.292Z,80.03
2022-09-21T03:31:05.841Z,80.00
2022-09-21T03:32:09.702Z,79.91
2022-09-21T03:33:12.796Z,79.94
2022-09-21T03:34:15.247Z,80.00
2022-09-21T03:35:16.968Z,79.93
2022-09-21T03:36:19.547Z,79.90
2022-09-21T03:37:21.087Z,80.00
2022-09-21T03:38:23.675Z,79.91
2022-09-21T03:39:25.213Z,79.86
2022-09-21T03:40:27.931Z,79.95
2022-09-21T03:41:29.490Z,79.86
2022-09-21T03:42:31.976Z,79.83
2022-09-21T03:43:33.547Z,79.76
2022-09-21T03:44:37.356Z,79.80
2022-09-21T03:45:42.129Z,79.74
2022-09-21T03:46:44.627Z,79.73
2022-09-21T03:47:48.115Z,80.15
2022-09-21T03:48:50.679Z,79.70
2022-09-21T03:49:52.271Z,79.68
2022-09-21T03:50:54.840Z,79.71
2022-09-21T03:51:57.013Z,79.84
2022-09-21T03:52:59.795Z,79.92
2022-09-21T03:54:01.288Z,79.90
2022-09-21T03:55:05.000Z,79.87
2022-09-21T03:56:06.534Z,80.09
2022-09-21T03:57:09.469Z,79.82
2022-09-21T03:58:11.038Z,79.95
2022-09-21T03:59:14.499Z,79.94
2022-09-21T04:00:16.972Z,79.77
2022-09-21T04:01:19.509Z,79.87
2022-09-21T04:02:22.367Z,79.69
2022-09-21T04:03:26.242Z,79.97
2022-09-21T04:04:27.735Z,79.86
2022-09-21T04:05:30.261Z,79.87
2022-09-21T04:06:32.046Z,79.78
2022-09-21T04:07:37.631Z,79.96
2022-09-21T04:08:39.472Z,79.68
2022-09-21T04:09:42.489Z,79.63
2022-09-21T04:10:44.023Z,79.74
2022-09-21T04:11:48.094Z,79.78
2022-09-21T04:12:49.837Z,79.82
2022-09-21T04:13:53.191Z,79.75
2022-09-21T04:14:54.756Z,79.93
2022-09-21T04:15:57.302Z,79.88
2022-09-21T04:16:58.854Z,79.87
2022-09-21T04:18:02.865Z,80.01
2022-09-21T04:19:05.924Z,79.95
2022-09-21T04:20:09.991Z,79.95
2022-09-21T04:21:11.472Z,80.04
2022-09-21T04:22:14.118Z,79.89
2022-09-21T04:23:16.613Z,79.90
2022-09-21T04:24:19.179Z,79.98
2022-09-21T04:25:21.742Z,79.89
2022-09-21T04:26:26.072Z,80.06
2022-09-21T04:27:28.593Z,80.24
2022-09-21T04:28:31.140Z,80.12
2022-09-21T04:29:33.642Z,80.02
2022-09-21T04:30:37.765Z,80.17
2022-09-21T04:31:41.070Z,80.32
2022-09-21T04:32:42.759Z,80.28
2022-09-21T04:33:45.447Z,80.26
2022-09-21T04:34:48.350Z,80.23
2022-09-21T04:35:55.729Z,80.47
2022-09-21T04:36:58.331Z,80.52
2022-09-21T04:37:59.928Z,80.39
2022-09-21T04:39:02.457Z,80.21
2022-09-21T04:40:05.665Z,80.11
2022-09-21T04:41:08.278Z,80.38
2022-09-21T04:42:10.634Z,80.31
2022-09-21T04:43:13.352Z,80.18
2022-09-21T04:44:15.423Z,80.37
2022-09-21T04:45:18.002Z,80.37
2022-09-21T04:46:20.454Z,80.47
2022-09-21T04:47:23.582Z,80.40
2022-09-21T04:48:25.071Z,80.39
2022-09-21T04:49:27.721Z,80.41
2022-09-21T04:50:30.587Z,80.26
2022-09-21T04:51:33.101Z,80.24
2022-09-21T04:52:34.625Z,80.27
2022-09-21T04:53:38.721Z,80.45
2022-09-21T04:54:40.221Z,80.42
2022-09-21T04:55:42.774Z,80.31
2022-09-21T04:56:44.272Z,80.35
2022-09-21T04:57:47.298Z,80.52
2022-09-21T04:58:48.880Z,80.62
2022-09-21T04:59:51.343Z,80.46
2022-09-21T05:00:55.056Z,80.51
2022-09-21T05:01:57.556Z,80.70
2022-09-21T05:02:59.097Z,80.52
2022-09-21T05:04:02.866Z,80.45
2022-09-21T05:05:06.472Z,80.66
2022-09-21T05:06:10.787Z,80.64
2022-09-21T05:07:13.280Z,80.66
2022-09-21T05:08:14.781Z,80.64
2022-09-21T05:09:35.230Z,80.54
2022-09-21T05:10:37.706Z,80.76
2022-09-21T05:11:39.265Z,80.66
2022-09-21T05:12:42.104Z,80.77
2022-09-21T05:13:43.598Z,80.84
2022-09-21T05:14:46.134Z,80.86
2022-09-21T05:15:47.732Z,81.04
2022-09-21T05:16:50.423Z,80.89
2022-09-21T05:17:51.978Z,81.00
2022-09-21T05:18:55.442Z,80.97
2022-09-21T05:19:57.923Z,81.14
2022-09-21T05:21:00.972Z,80.96
2022-09-21T05:22:04.859Z,81.31
2022-09-21T05:23:07.296Z,81.06
2022-09-21T05:24:09.321Z,81.34
2022-09-21T05:25:11.788Z,81.31
2022-09-21T05:26:13.430Z,81.30
2022-09-21T05:27:16.064Z,81.32
2022-09-21T05:28:19.024Z,81.28
2022-09-21T05:29:22.063Z,81.48
2022-09-21T05:30:25.165Z,81.47
2022-09-21T05:31:41.166Z,81.52
2022-09-21T05:32:48.892Z,81.44
2022-09-21T05:33:52.853Z,81.52
2022-09-21T05:35:07.551Z,81.47
2022-09-21T05:36:27.290Z,81.35
2022-09-21T05:37:50.557Z,81.40
2022-09-21T05:38:52.684Z,81.37
2022-09-21T05:39:55.783Z,81.42
2022-09-21T05:40:57.844Z,81.50
2022-09-21T05:42:01.026Z,81.54
2022-09-21T05:43:04.075Z,81.60
2022-09-21T05:44:06.551Z,81.45
2022-09-21T05:45:14.228Z,81.57
2022-09-21T05:46:20.859Z,81.61
2022-09-21T05:47:28.995Z,81.76
2022-09-21T05:48:37.806Z,81.57
2022-09-21T05:49:50.062Z,81.83
2022-09-21T05:50:59.366Z,82.23
2022-09-21T05:52:09.348Z,81.93
2022-09-21T05:53:24.717Z,81.77
2022-09-21T05:54:38.228Z,81.75
2022-09-21T05:55:48.549Z,81.77
2022-09-21T05:56:58.289Z,81.49
2022-09-21T05:58:07.311Z,81.54
2022-09-21T05:59:29.805Z,81.44
2022-09-21T06:00:42.836Z,81.61
2022-09-21T06:01:56.501Z,81.42
2022-09-21T06:03:26.401Z,81.44
2022-09-21T06:04:28.503Z,81.44
2022-09-21T06:05:31.480Z,81.17
2022-09-21T06:06:33.014Z,81.58
2022-09-21T06:07:35.572Z,81.27
2022-09-21T06:08:39.020Z,81.42
2022-09-21T06:09:43.326Z,81.15
2022-09-21T06:10:45.369Z,81.30
2022-09-21T06:11:48.123Z,81.01
2022-09-21T06:12:49.653Z,81.45
2022-09-21T06:13:52.162Z,81.19
2022-09-21T06:14:56.260Z,80.99
2022-09-21T06:15:58.841Z,80.87
2022-09-21T06:17:00.382Z,81.16
2022-09-21T06:18:03.128Z,80.97
2022-09-21T06:19:05.142Z,80.82
2022-09-21T06:20:08.992Z,80.74
2022-09-21T06:21:10.877Z,80.53
2022-09-21T06:22:13.399Z,80.74
2022-09-21T06:23:15.486Z,80.69
2022-09-21T06:24:24.495Z,80.79
2022-09-21T06:25:26.852Z,80.72
2022-09-21T06:26:29.668Z,80.66
2022-09-21T06:27:31.255Z,80.58
2022-09-21T06:28:33.777Z,80.86
2022-09-21T06:29:35.306Z,80.65
2022-09-21T06:30:39.233Z,80.58
2022-09-21T06:31:40.962Z,80.67
2022-09-21T06:32:43.446Z,80.56
2022-09-21T06:33:48.142Z,80.60
2022-09-21T06:34:51.766Z,80.49
2022-09-21T06:35:54.474Z,80.51
2022-09-21T06:36:56.924Z,80.48
2022-09-21T06:37:59.653Z,80.65
2022-09-21T06:39:02.195Z,80.49
2022-09-21T06:40:07.412Z,80.45
2022-09-21T06:41:09.050Z,80.35
2022-09-21T06:42:11.569Z,80.57
2022-09-21T06:43:13.219Z,80.42
2022-09-21T06:44:15.736Z,80.61
2022-09-21T06:45:18.263Z,80.54
2022-09-21T06:46:21.410Z,80.50
2022-09-21T06:47:22.961Z,80.66
2022-09-21T06:48:25.852Z,80.70
2022-09-21T06:49:29.186Z,80.51
2022-09-21T06:50:30.772Z,80.50
2022-09-21T06:51:33.252Z,80.49
2022-09-21T06:52:35.920Z,80.50
2022-09-21T06:53:37.558Z,80.30
2022-09-21T06:54:40.863Z,80.29
2022-09-21T06:55:44.004Z,80.27
2022-09-21T06:56:46.579Z,80.10
2022-09-21T06:57:48.350Z,79.94
2022-09-21T06:58:51.834Z,79.99
2022-09-21T06:59:54.626Z,79.93
2022-09-21T07:00:57.772Z,79.82
2022-09-21T07:02:02.396Z,79.74
2022-09-21T07:03:06.635Z,79.42
2022-09-21T07:04:10.360Z,79.19
2022-09-21T07:05:14.996Z,79.50
2022-09-21T07:06:21.989Z,79.52
2022-09-21T07:07:23.599Z,79.02
2022-09-21T07:10:05.553Z,79.11
2022-09-21T07:13:39.512Z,78.85
2022-09-21T07:14:41.035Z,78.84
2022-09-21T07:15:43.516Z,78.59
2022-09-21T07:16:45.170Z,78.51
2022-09-21T07:18:05.281Z,78.59
2022-09-21T07:19:11.942Z,78.29
2022-09-21T07:20:13.761Z,78.38
2022-09-21T07:21:17.465Z,78.09
2022-09-21T07:22:19.535Z,78.00
2022-09-21T07:23:22.588Z,78.35
2022-09-21T07:24:24.103Z,78.12
2022-09-21T07:25:26.685Z,77.90
2022-09-21T07:26:29.370Z,77.82
2022-09-21T07:27:32.659Z,77.82
2022-09-21T07:28:35.537Z,77.91
2022-09-21T07:29:38.427Z,77.79
2022-09-21T07:30:41.718Z,78.01
2022-09-21T07:31:43.911Z,77.70
2022-09-21T07:32:46.409Z,77.44
2022-09-21T07:33:47.944Z,77.52
2022-09-21T07:34:51.255Z,77.55
2022-09-21T07:35:53.329Z,77.30
2022-09-21T07:36:55.825Z,77.29
2022-09-21T07:37:57.949Z,77.30
2022-09-21T07:39:00.494Z,77.24
2022-09-21T07:40:05.768Z,77.25
2022-09-21T07:41:09.195Z,77.72
2022-09-21T07:42:10.812Z,77.22
2022-09-21T07:43:13.460Z,77.33
2022-09-21T07:44:15.432Z,77.25
2022-09-21T07:45:19.441Z,77.15
2022-09-21T07:46:22.059Z,77.32
2022-09-21T07:47:25.594Z,77.25
2022-09-21T07:48:28.714Z,77.07
2022-09-21T07:49:30.431Z,77.27
2022-09-21T07:50:34.003Z,77.23
2022-09-21T07:51:35.867Z,77.25
2022-09-21T07:52:38.350Z,77.03
2022-09-21T07:54:37.121Z,76.99
2022-09-21T07:55:38.675Z,77.02
2022-09-21T07:56:42.068Z,77.15
2022-09-21T07:58:02.136Z,77.14
2022-09-21T07:59:06.731Z,77.43
2022-09-21T08:00:09.550Z,77.05
2022-09-21T08:01:14.556Z,77.08
2022-09-21T08:02:17.298Z,77.53
2022-09-21T08:03:19.034Z,76.91
2022-09-21T08:04:24.557Z,77.23
2022-09-21T08:05:27.048Z,77.25
2022-09-21T08:06:32.760Z,77.28
2022-09-21T08:07:35.294Z,77.25
2022-09-21T08:08:37.094Z,77.66
2022-09-21T08:09:40.717Z,77.19
2022-09-21T08:10:42.498Z,77.25
2022-09-21T08:11:45.042Z,77.19
2022-09-21T08:12:46.797Z,77.39
2022-09-21T08:13:49.557Z,77.33
2022-09-21T08:14:51.367Z,77.23
2022-09-21T08:15:58.986Z,77.08
2022-09-21T08:17:03.382Z,77.25
2022-09-21T08:18:07.123Z,77.07
2022-09-21T08:19:09.633Z,77.31
2022-09-21T08:20:11.377Z,76.92
2022-09-21T08:21:14.475Z,77.09
2022-09-21T08:22:16.955Z,76.91
2022-09-21T08:23:18.593Z,77.54
2022-09-21T08:24:21.477Z,77.03
2022-09-21T08:25:27.284Z,77.02
2022-09-21T08:26:28.845Z,77.07
2022-09-21T08:27:31.547Z,76.99
2022-09-21T08:28:35.503Z,76.92
2022-09-21T08:29:37.097Z,77.04
2022-09-21T08:30:39.618Z,76.53
2022-09-21T08:31:41.196Z,76.72
2022-09-21T08:32:51.409Z,76.68
2022-09-21T08:33:55.273Z,76.54
2022-09-21T08:34:57.835Z,76.89
2022-09-21T08:36:00.992Z,76.60
2022-09-21T08:37:03.609Z,76.36
2022-09-21T08:38:05.168Z,76.50
2022-09-21T08:39:08.042Z,76.25
2022-09-21T08:40:10.947Z,76.27
2022-09-21T08:41:19.809Z,76.14
2022-09-21T08:42:40.785Z,76.26
2022-09-21T08:43:43.897Z,76.12
2022-09-21T08:44:50.873Z,75.90
2022-09-21T08:45:52.821Z,75.98
2022-09-21T08:47:04.685Z,76.03
2022-09-21T08:48:14.095Z,75.74
2022-09-21T08:49:21.163Z,75.50
2022-09-21T08:50:34.309Z,75.47
2022-09-21T08:51:41.905Z,75.29
2022-09-21T08:52:47.284Z,75.26
2022-09-21T08:53:53.147Z,75.32
2022-09-21T08:54:59.411Z,75.11
2022-09-21T08:56:02.764Z,75.07
2022-09-21T08:57:06.435Z,74.96
2022-09-21T08:58:23.144Z,74.91
2022-09-21T08:59:25.681Z,74.65
2022-09-21T09:00:31.138Z,74.54
2022-09-21T09:01:43.975Z,74.70
2022-09-21T09:03:25.000Z,74.59
2022-09-21T09:04:41.758Z,74.71
2022-09-21T09:05:50.960Z,74.22
2022-09-21T09:07:01.760Z,74.26
2022-09-21T09:08:19.291Z,74.29
2022-09-21T09:09:37.578Z,74.19
2022-09-21T09:10:47.225Z,74.27
2022-09-21T09:12:06.346Z,74.07
2022-09-21T09:13:38.145Z,73.91
2022-09-21T09:14:56.923Z,73.85
2022-09-21T09:16:09.990Z,73.64
2022-09-21T09:17:28.063Z,73.51
2022-09-21T09:18:43.397Z,73.67
2022-09-21T09:19:52.545Z,73.49
2022-09-21T09:20:58.458Z,73.42
2022-09-21T09:22:03.484Z,73.25
2022-09-21T09:23:11.299Z,73.03
2022-09-21T09:24:18.422Z,72.97
2022-09-21T09:25:22.347Z,72.86
2022-09-21T09:26:31.095Z,72.73
2022-09-21T09:27:37.842Z,72.55
2022-09-21T09:28:50.125Z,72.36
2022-09-21T09:30:03.951Z,72.46
2022-09-21T09:31:15.616Z,72.23
2022-09-21T09:32:19.321Z,72.26
2022-09-21T09:33:25.508Z,72.33
2022-09-21T09:34:33.437Z,72.39
2022-09-21T09:35:44.446Z,72.20
2022-09-21T09:36:58.917Z,72.13
2022-09-21T09:38:11.901Z,72.00
2022-09-21T09:39:16.387Z,71.97
2022-09-21T09:40:30.135Z,71.66
2022-09-21T09:41:51.733Z,71.76
2022-09-21T09:43:04.664Z,71.60
2022-09-21T09:44:24.002Z,71.47
2022-09-21T09:45:37.118Z,71.08
2022-09-21T09:46:51.040Z,70.75
2022-09-21T09:48:02.522Z,70.71
2022-09-21T09:49:20.842Z,70.46
2022-09-21T09:50:28.767Z,70.40
2022-09-21T09:51:38.353Z,70.10
2022-09-21T09:52:41.572Z,70.22
2022-09-21T09:53:44.755Z,69.84
2022-09-21T09:54:46.808Z,69.84
2022-09-21T09:55:51.342Z,69.58
2022-09-21T09:56:55.130Z,69.30
2022-09-21T09:57:56.919Z,69.04
2022-09-21T09:59:08.037Z,68.72
2022-09-21T10:00:15.091Z,68.88
2022-09-21T10:01:38.762Z,68.30
2022-09-21T10:02:48.469Z,68.09
2022-09-21T10:04:06.749Z,68.08
2022-09-21T10:05:21.755Z,68.08
2022-09-21T10:06:32.518Z,67.92
2022-09-21T10:07:37.235Z,67.92
2022-09-21T10:08:42.102Z,67.80
2022-09-21T10:09:44.615Z,67.59
2022-09-21T10:10:47.964Z,67.23
2022-09-21T10:11:51.114Z,67.13
2022-09-21T10:12:54.068Z,67.29
2022-09-21T10:14:08.795Z,66.86
2022-09-21T10:15:12.682Z,66.71
2022-09-21T10:16:18.737Z,66.62
2022-09-21T10:17:22.160Z,66.35
2022-09-21T10:18:26.225Z,66.35
2022-09-21T10:19:29.254Z,66.04
2022-09-21T10:20:32.866Z,65.64
2022-09-21T10:21:38.694Z,65.61
2022-09-21T10:22:40.451Z,65.47
2022-09-21T10:23:48.529Z,65.21
2022-09-21T10:24:53.919Z,65.51
2022-09-21T10:25:59.719Z,65.29
2022-09-21T10:27:10.212Z,65.36
2022-09-21T10:28:13.691Z,65.16
2022-09-21T10:29:22.334Z,64.94
2022-09-21T10:30:38.430Z,64.88
2022-09-21T10:31:55.955Z,64.70
2022-09-21T10:33:00.139Z,64.84
2022-09-21T10:34:14.404Z,64.67
2022-09-21T10:35:19.845Z,64.51
2022-09-21T10:36:34.904Z,64.25
2022-09-21T10:37:41.273Z,64.13
2022-09-21T10:38:42.945Z,64.01
2022-09-21T10:39:47.378Z,64.11
2022-09-21T10:40:49.182Z,63.91
2022-09-21T10:41:54.225Z,63.75
2022-09-21T10:42:58.537Z,63.75
2022-09-21T10:44:01.245Z,63.69
2022-09-21T10:45:16.603Z,63.30
2022-09-21T10:46:32.792Z,63.34
2022-09-21T10:47:38.374Z,63.26
2022-09-21T10:48:40.983Z,63.26
2022-09-21T10:49:45.847Z,62.74
2022-09-21T10:50:50.246Z,62.63
2022-09-21T10:51:54.828Z,62.49
2022-09-21T10:53:02.538Z,62.38
2022-09-21T10:54:08.839Z,61.81
2022-09-21T10:55:18.740Z,61.43
2022-09-21T10:56:20.590Z,61.23
2022-09-21T10:57:26.137Z,60.61
2022-09-21T10:58:28.467Z,60.41
2022-09-21T10:59:32.871Z,60.03
2022-09-21T11:00:42.041Z,59.60
2022-09-21T11:01:46.754Z,59.26
2022-09-21T11:02:50.679Z,58.69
2022-09-21T11:04:00.573Z,58.53
2022-09-21T11:05:10.182Z,58.24
2022-09-21T11:06:18.239Z,58.14
2022-09-21T11:07:28.532Z,57.88
2022-09-21T11:08:37.745Z,57.92
2022-09-21T11:09:45.327Z,57.54
2022-09-21T11:10:56.028Z,57.27
2022-09-21T11:12:02.038Z,57.35
2022-09-21T11:13:19.132Z,57.23
2022-09-21T11:14:34.858Z,57.36
2022-09-21T11:15:45.763Z,57.19
2022-09-21T11:16:56.514Z,57.05
2022-09-21T11:18:05.442Z,57.06
2022-09-21T11:19:18.500Z,57.18
2022-09-21T11:20:31.428Z,57.29
2022-09-21T11:21:42.290Z,57.21
2022-09-21T11:22:57.527Z,57.34
2022-09-21T11:24:10.830Z,57.34
2022-09-21T11:25:28.499Z,57.40
2022-09-21T11:26:46.517Z,57.40
2022-09-21T11:27:55.280Z,57.57
2022-09-21T11:29:03.062Z,57.45
2022-09-21T11:30:11.092Z,57.44
2022-09-21T11:31:42.263Z,57.46
2022-09-21T11:33:11.125Z,57.16
2022-09-21T11:34:47.835Z,57.17
2022-09-21T11:36:01.440Z,57.09
2022-09-21T11:37:14.137Z,56.92
2022-09-21T11:38:34.421Z,56.73
2022-09-21T11:39:51.634Z,56.68
2022-09-21T11:41:07.319Z,56.28
2022-09-21T11:42:21.735Z,56.10
2022-09-21T11:43:37.462Z,55.92
2022-09-21T11:44:52.936Z,55.61
2022-09-21T11:46:04.448Z,55.65
2022-09-21T11:47:17.020Z,55.47
2022-09-21T11:48:28.915Z,55.38
2022-09-21T11:49:59.026Z,55.10
2022-09-21T11:51:25.273Z,54.99
2022-09-21T11:52:40.198Z,54.74
2022-09-21T11:53:54.086Z,54.70
2022-09-21T11:55:23.091Z,54.51
2022-09-21T11:56:44.134Z,54.61
2022-09-21T11:57:55.148Z,54.49
2022-09-21T11:59:06.795Z,54.31
2022-09-21T12:00:15.619Z,54.31
2022-09-21T12:01:37.222Z,54.15
2022-09-21T12:03:15.224Z,54.13
2022-09-21T12:04:37.442Z,54.03
2022-09-21T12:05:46.332Z,53.85
2022-09-21T12:07:06.833Z,53.44
2022-09-21T12:08:37.896Z,53.66
2022-09-21T12:10:18.636Z,53.03
2022-09-21T12:11:32.428Z,52.84
2022-09-21T12:12:42.072Z,52.51
2022-09-21T12:13:53.984Z,52.15
2022-09-21T12:15:03.735Z,51.92
2022-09-21T12:16:14.247Z,51.59
2022-09-21T12:17:27.401Z,51.43
2022-09-21T12:18:37.326Z,51.28
2022-09-21T12:19:45.792Z,51.40
2022-09-21T12:20:57.202Z,51.42
2022-09-21T12:22:04.780Z,51.56
2022-09-21T12:23:27.533Z,51.49
2022-09-21T12:24:34.296Z,51.42
2022-09-21T12:25:41.766Z,51.23
2022-09-21T12:26:49.071Z,50.96
2022-09-21T12:27:53.489Z,50.53
2022-09-21T12:29:02.086Z,50.42
2022-09-21T12:30:11.367Z,50.54
2022-09-21T12:31:31.493Z,50.15
2022-09-21T12:32:49.443Z,49.94
2022-09-21T12:33:55.007Z,49.74
2022-09-21T12:35:00.765Z,49.52
2022-09-21T12:36:10.317Z,49.30
2022-09-21T12:37:16.836Z,49.08
2022-09-21T12:38:24.400Z,48.94
2022-09-21T12:39:33.763Z,48.80
2022-09-21T12:40:40.303Z,48.56
2022-09-21T12:41:52.041Z,48.60
2022-09-21T12:43:01.584Z,48.24
2022-09-21T12:44:16.731Z,48.39
2022-09-21T12:45:23.992Z,48.37
2022-09-21T12:46:32.312Z,48.08
2022-09-21T12:47:46.997Z,47.83
2022-09-21T12:48:49.455Z,48.09
2022-09-21T12:49:54.494Z,47.76
2022-09-21T12:51:05.875Z,47.57
2022-09-21T12:52:08.970Z,47.80
2022-09-21T12:53:18.876Z,47.66
2022-09-21T12:54:31.216Z,47.60
2022-09-21T12:55:44.325Z,47.79
2022-09-21T12:56:54.306Z,47.78
2022-09-21T12:58:15.075Z,47.50
2022-09-21T12:59:31.439Z,47.60
2022-09-21T13:00:41.796Z,47.50
2022-09-21T13:01:47.621Z,47.58
2022-09-21T13:02:55.626Z,47.59
2022-09-21T13:04:12.339Z,47.85
2022-09-21T13:05:24.782Z,47.65
2022-09-21T13:07:01.292Z,48.23
2022-09-21T13:08:09.956Z,48.56
2022-09-21T13:09:17.944Z,48.82
2022-09-21T13:10:31.579Z,49.18
2022-09-21T13:11:35.929Z,49.37
2022-09-21T13:12:44.509Z,49.27
2022-09-21T13:13:51.249Z,49.51
2022-09-21T13:15:02.765Z,49.53
2022-09-21T13:16:08.719Z,49.56
2022-09-21T13:17:20.733Z,48.96
2022-09-21T13:18:27.091Z,49.05
2022-09-21T13:19:31.675Z,49.09
2022-09-21T13:20:37.136Z,48.95
2022-09-21T13:21:44.108Z,49.13
2022-09-21T13:23:00.666Z,49.32
2022-09-21T13:24:06.424Z,49.27
2022-09-21T13:25:21.579Z,48.83
2022-09-21T13:26:34.571Z,48.64
2022-09-21T13:28:19.515Z,48.84
2022-09-21T13:29:32.815Z,48.81
2022-09-21T13:30:40.351Z,48.83
2022-09-21T13:31:57.355Z,49.00
2022-09-21T13:32:59.549Z,48.69
2022-09-21T13:34:21.719Z,48.42
2022-09-21T13:35:52.992Z,48.44
2022-09-21T13:37:30.678Z,48.36
2022-09-21T13:38:37.128Z,48.03
2022-09-21T13:39:44.652Z,47.96
2022-09-21T13:40:57.413Z,47.71
2022-09-21T13:42:03.356Z,47.58
2022-09-21T13:43:46.124Z,47.52
2022-09-21T13:44:51.248Z,47.46
